createdAt,value
2018-10-02T07:47:21.419Z,9.87
2018-10-02T07:49:49.626Z,10.90
2018-10-02T08:44:11.959Z,10.07
2018-10-02T08:46:40.131Z,8.43
2018-10-02T09:04:23.026Z,9.50
2018-10-02T09:12:57.587Z,10.20
2018-10-02T09:38:49.391Z,9.03
2018-10-02T10:10:45.150Z,10.03
2018-10-02T10:13:13.323Z,12.60
2018-10-02T10:15:43.641Z,9.73
2018-10-02T10:32:22.665Z,9.53
2018-10-02T10:34:50.872Z,12.87
2018-10-02T10:37:19.037Z,5.83
2018-10-02T17:02:28.766Z,10.13
2018-10-02T17:04:56.907Z,10.10
2018-10-02T17:07:24.993Z,11.03
2018-10-02T17:09:53.094Z,10.70
2018-10-02T17:12:21.170Z,10.80
2018-10-02T17:14:49.258Z,9.87
2018-10-02T17:17:17.318Z,9.73
2018-10-02T17:19:45.428Z,10.60
2018-10-02T17:22:13.526Z,10.27
2018-10-02T17:24:41.622Z,10.93
2018-10-02T17:27:09.774Z,10.90
2018-10-02T17:29:37.853Z,11.73
2018-10-02T17:32:05.934Z,12.17
2018-10-02T17:34:34.005Z,12.43
2018-10-02T17:37:02.075Z,13.80
2018-10-02T17:39:30.135Z,14.20
2018-10-02T17:41:58.552Z,13.80
2018-10-02T17:44:26.698Z,14.17
2018-10-02T17:46:54.887Z,14.03
2018-10-02T17:49:22.977Z,13.60
2018-10-02T17:51:51.055Z,13.00
2018-10-02T17:54:19.119Z,13.00
2018-10-02T17:56:47.179Z,12.87
2018-10-02T17:59:15.311Z,11.90
2018-10-02T18:01:43.386Z,12.17
2018-10-02T18:04:11.475Z,12.00
2018-10-02T18:06:39.534Z,12.80
2018-10-02T18:09:08.072Z,12.17
2018-10-02T18:11:36.273Z,11.97
2018-10-02T18:14:04.371Z,12.63
2018-10-02T18:16:32.520Z,12.93
2018-10-02T18:19:00.632Z,14.13
2018-10-02T18:21:29.155Z,14.20
2018-10-02T18:23:57.279Z,12.40
2018-10-02T18:26:25.383Z,14.07
2018-10-02T18:28:53.450Z,13.93
2018-10-02T18:31:21.686Z,13.87
2018-10-02T18:33:49.878Z,14.50
2018-10-02T18:36:17.949Z,13.23
2018-10-02T18:38:46.070Z,14.93
2018-10-02T18:41:14.087Z,16.30
2018-10-02T18:43:42.215Z,16.43
2018-10-02T18:46:10.282Z,17.37
2018-10-02T18:48:38.385Z,16.90
2018-10-02T18:51:06.518Z,19.57
2018-10-02T18:53:34.596Z,18.50
2018-10-02T18:56:02.849Z,19.97
2018-10-02T18:58:30.953Z,17.23
2018-10-02T19:00:59.067Z,17.57
2018-10-02T19:03:27.147Z,18.03
2018-10-02T19:05:55.298Z,19.40
2018-10-02T19:08:28.690Z,24.10
2018-10-02T19:11:01.260Z,26.03
2018-10-02T19:13:29.367Z,22.27
2018-10-02T19:16:02.830Z,22.93
2018-10-02T19:18:30.919Z,20.40
2018-10-02T19:20:59.022Z,24.17
2018-10-02T19:23:27.423Z,26.67
2018-10-02T19:26:00.968Z,26.27
2018-10-02T19:28:29.047Z,29.07
2018-10-02T19:31:02.462Z,27.40
2018-10-02T19:33:30.834Z,28.87
2018-10-02T19:35:58.925Z,27.10
2018-10-02T19:38:32.333Z,26.53
2018-10-02T19:41:00.445Z,25.40
2018-10-02T19:43:28.546Z,26.23
2018-10-02T19:46:02.043Z,27.20
2018-10-02T19:48:30.121Z,25.67
2018-10-02T19:51:03.540Z,26.80
2018-10-02T19:53:31.602Z,25.37
2018-10-02T19:55:59.766Z,30.17
2018-10-02T19:58:28.065Z,27.73
2018-10-02T20:00:56.226Z,24.97
2018-10-02T20:03:24.278Z,25.07
2018-10-02T20:05:53.518Z,24.03
2018-10-02T20:08:21.581Z,26.37
2018-10-02T20:10:49.713Z,28.80
2018-10-02T20:13:17.887Z,27.30
2018-10-02T20:15:45.898Z,20.87
2018-10-02T20:18:14.002Z,30.63
2018-10-02T20:20:42.160Z,24.63
2018-10-02T20:23:10.238Z,27.00
2018-10-02T20:25:38.323Z,26.90
2018-10-02T20:28:06.455Z,33.97
2018-10-02T20:30:35.015Z,29.90
2018-10-02T20:33:03.532Z,24.80
2018-10-02T20:35:31.610Z,28.43
2018-10-02T20:37:59.707Z,29.53
2018-10-02T20:40:27.791Z,27.47
2018-10-02T20:42:55.903Z,36.97
2018-10-02T20:45:25.103Z,26.90
2018-10-02T20:47:53.204Z,28.10
2018-10-02T20:50:21.274Z,27.43
2018-10-02T20:52:49.358Z,29.73
2018-10-02T20:55:17.435Z,33.83
2018-10-02T20:57:45.513Z,35.03
2018-10-02T21:00:13.778Z,28.10
2018-10-02T21:02:42.159Z,31.97
2018-10-02T21:05:10.232Z,33.77
2018-10-02T21:07:38.445Z,38.10
2018-10-02T21:10:06.523Z,35.53
2018-10-02T21:12:34.606Z,34.40
2018-10-02T21:15:02.733Z,23.50
2018-10-02T21:17:30.843Z,23.10
2018-10-02T21:19:59.748Z,30.13
2018-10-02T21:22:28.305Z,34.17
2018-10-02T21:24:56.412Z,26.50
2018-10-02T21:27:24.542Z,26.70
2018-10-02T21:29:52.640Z,24.13
2018-10-02T21:32:20.742Z,24.27
2018-10-02T21:34:48.798Z,28.83
2018-10-02T21:37:16.891Z,28.53
2018-10-02T21:39:45.034Z,25.33
2018-10-02T21:42:13.227Z,27.87
2018-10-02T21:44:41.300Z,24.17
2018-10-02T21:47:09.382Z,22.60
2018-10-02T21:49:37.474Z,22.13
2018-10-02T21:52:05.573Z,31.90
2018-10-02T21:54:34.365Z,22.20
2018-10-02T21:57:02.503Z,28.30
2018-10-02T21:59:30.544Z,24.30
2018-10-02T22:01:58.621Z,22.63
2018-10-02T22:04:26.912Z,24.17
2018-10-02T22:06:55.000Z,27.87
2018-10-02T22:09:23.087Z,23.20
2018-10-02T22:11:51.177Z,24.43
2018-10-02T22:14:19.348Z,24.97
2018-10-02T22:16:47.537Z,26.10
2018-10-02T22:19:15.622Z,31.30
2018-10-02T22:21:43.730Z,28.73
2018-10-02T22:24:12.267Z,19.27
2018-10-02T22:26:40.331Z,21.93
2018-10-02T22:29:08.439Z,24.47
2018-10-02T22:31:37.141Z,24.97
2018-10-02T22:34:05.221Z,24.73
2018-10-02T22:36:33.304Z,25.20
2018-10-02T22:39:01.375Z,20.77
2018-10-02T22:41:29.471Z,30.33
2018-10-02T22:43:57.551Z,26.27
2018-10-02T22:46:25.670Z,23.20
2018-10-02T22:48:53.772Z,32.10
2018-10-02T22:51:21.867Z,24.40
2018-10-02T22:53:50.165Z,26.33
2018-10-02T22:56:18.257Z,23.37
2018-10-02T22:58:46.362Z,29.43
2018-10-02T23:01:14.432Z,24.47
2018-10-02T23:03:42.532Z,22.27
2018-10-02T23:06:10.946Z,29.87
2018-10-02T23:08:39.072Z,35.37
2018-10-02T23:11:07.163Z,27.53
2018-10-02T23:13:35.235Z,24.03
2018-10-02T23:16:03.381Z,30.17
2018-10-02T23:18:31.478Z,21.90
2018-10-02T23:20:59.538Z,20.33
2018-10-02T23:23:27.602Z,21.43
2018-10-02T23:25:55.703Z,22.53
2018-10-02T23:28:23.774Z,27.67
2018-10-02T23:30:52.201Z,21.50
2018-10-02T23:33:20.266Z,26.97
2018-10-02T23:35:48.349Z,23.23
2018-10-02T23:38:16.419Z,22.07
2018-10-02T23:40:44.699Z,17.87
2018-10-02T23:43:12.772Z,30.37
2018-10-02T23:45:40.844Z,26.20
2018-10-02T23:48:08.939Z,23.50
2018-10-02T23:50:37.088Z,24.47
2018-10-02T23:53:05.190Z,20.60
2018-10-02T23:55:34.149Z,22.43
2018-10-02T23:58:02.249Z,21.20
